createdAt,value
2017-04-30T00:07:21.472Z,1007.1
2017-04-30T00:17:32.675Z,1007.1
2017-04-30T00:27:43.985Z,1007.1
2017-04-30T00:37:55.350Z,1007
2017-04-30T00:48:06.680Z,1006.9
2017-04-30T00:58:18.012Z,1007
2017-04-30T01:08:29.365Z,1007
2017-04-30T01:18:40.746Z,1006.9
2017-04-30T01:28:52.139Z,1007
2017-04-30T01:39:03.547Z,1006.8
2017-04-30T01:49:15.009Z,1006.8
2017-04-30T01:59:26.495Z,1006.8
2017-04-30T02:09:37.937Z,1006.7
2017-04-30T02:19:49.473Z,1006.8
2017-04-30T02:30:00.986Z,1006.7
2017-04-30T02:40:12.407Z,1006.6
2017-04-30T02:50:23.904Z,1006.6
2017-04-30T03:00:35.408Z,1006.5
2017-04-30T03:10:46.978Z,1006.6
2017-04-30T03:20:58.449Z,1006.5
2017-04-30T03:31:10.001Z,1006.5
2017-04-30T03:41:21.572Z,1006.3
2017-04-30T03:51:33.184Z,1006.3
2017-04-30T04:01:44.999Z,1006.4
2017-04-30T04:11:56.359Z,1006.2
2017-04-30T04:22:07.921Z,1006.2
2017-04-30T04:32:19.304Z,1006.2
2017-04-30T04:42:30.562Z,1006.1
2017-04-30T04:52:41.750Z,1006
2017-04-30T05:02:52.808Z,1006
2017-04-30T05:13:03.774Z,1005.9
2017-04-30T05:23:14.584Z,1005.9
2017-04-30T05:33:25.274Z,1005.9
2017-04-30T05:43:35.811Z,1006
2017-04-30T05:53:46.170Z,1005.8
2017-04-30T06:03:56.392Z,1005.8
2017-04-30T06:14:06.561Z,1005.8
2017-04-30T06:24:16.672Z,1005.7
2017-04-30T06:34:26.685Z,1005.6
2017-04-30T06:44:36.571Z,1005.5
2017-04-30T06:54:46.430Z,1005.4
2017-04-30T07:04:56.099Z,1005.5
2017-04-30T07:15:05.625Z,1005.4
2017-04-30T07:25:15.177Z,1005.4
2017-04-30T07:35:24.527Z,1005.2
2017-04-30T07:45:33.821Z,1005.1
2017-04-30T07:55:43.042Z,1005.1
2017-04-30T08:05:52.196Z,1004.9
2017-04-30T08:16:01.265Z,1004.9
2017-04-30T08:26:10.252Z,1004.7
2017-04-30T08:36:19.181Z,1004.6
2017-04-30T08:46:28.041Z,1004.4
2017-04-30T08:56:36.888Z,1004.3
2017-04-30T09:06:45.673Z,1004.2
2017-04-30T09:16:54.427Z,1004.2
2017-04-30T09:27:03.102Z,1004
2017-04-30T09:37:11.731Z,1004
2017-04-30T09:47:20.227Z,1003.8
2017-04-30T09:57:28.777Z,1003.6
2017-04-30T10:07:37.342Z,1003.4
2017-04-30T10:17:45.903Z,1003.3
2017-04-30T10:27:54.359Z,1003.3
2017-04-30T10:38:02.907Z,1003.1
2017-04-30T10:48:11.476Z,1003.4
2017-04-30T10:58:20.092Z,1003.3
2017-04-30T11:08:28.677Z,1003.3
2017-04-30T11:18:37.292Z,1003.2
2017-04-30T11:28:45.904Z,1003.2
2017-04-30T11:38:54.389Z,1002.8
2017-04-30T11:49:02.832Z,1002.7
2017-04-30T11:59:11.279Z,1002.7
2017-04-30T12:09:19.751Z,1002.5
2017-04-30T12:19:28.286Z,1002
2017-04-30T12:29:36.713Z,1001.7
2017-04-30T12:39:45.004Z,1001.4
2017-04-30T12:49:53.239Z,1001.2
2017-04-30T13:00:01.543Z,1001.1
2017-04-30T13:10:09.824Z,1000.9
2017-04-30T13:20:18.230Z,1000.8
2017-04-30T13:30:26.740Z,1000.6
2017-04-30T13:40:34.959Z,1000.5
2017-04-30T13:50:43.104Z,1000.2
2017-04-30T14:00:51.382Z,1000.3
2017-04-30T14:10:59.667Z,1000.1
2017-04-30T14:21:07.828Z,999.9
2017-04-30T14:31:16.029Z,999.7
2017-04-30T14:41:24.174Z,999.6
2017-04-30T14:51:32.250Z,999.6
2017-04-30T15:01:40.367Z,999.5
2017-04-30T15:11:48.447Z,999.4
2017-04-30T15:21:56.540Z,999.1
2017-04-30T15:32:04.683Z,998.8
2017-04-30T15:42:13.162Z,998.6
2017-04-30T15:52:21.543Z,998.7
2017-04-30T16:02:29.752Z,998.6
2017-04-30T16:12:37.939Z,998.3
2017-04-30T16:22:46.134Z,998.2
2017-04-30T16:32:54.425Z,998.1
2017-04-30T16:43:02.820Z,997.9
2017-04-30T16:53:11.475Z,997.8
2017-04-30T17:03:20.169Z,997.9
2017-04-30T17:13:28.745Z,997.8
2017-04-30T17:23:37.314Z,997.9
2017-04-30T17:33:46.002Z,997.6
2017-04-30T17:43:54.772Z,997.7
2017-04-30T17:54:03.676Z,997.8
2017-04-30T18:04:12.745Z,998
2017-04-30T18:14:21.856Z,997.9
2017-04-30T18:24:31.063Z,998
2017-04-30T18:34:40.394Z,998
2017-04-30T18:44:49.921Z,998
2017-04-30T18:54:59.351Z,998.2
2017-04-30T19:05:09.052Z,998.1
2017-04-30T19:15:18.767Z,998.2
2017-04-30T19:25:28.530Z,998.4
2017-04-30T19:35:38.352Z,998.5
2017-04-30T19:45:48.232Z,998.4
2017-04-30T19:55:58.139Z,998.4
2017-04-30T20:06:08.116Z,998.5
2017-04-30T20:16:18.074Z,998.4
2017-04-30T20:26:28.037Z,998.2
2017-04-30T20:36:38.081Z,998.3
2017-04-30T20:46:48.085Z,998.3
2017-04-30T20:56:58.115Z,998.2
2017-04-30T21:07:08.157Z,998.2
2017-04-30T21:17:18.272Z,998.2
2017-04-30T21:27:28.423Z,998.1
2017-04-30T21:37:38.554Z,998
2017-04-30T21:47:48.771Z,997.9
2017-04-30T21:57:58.931Z,997.8
2017-04-30T22:08:09.142Z,997.9
2017-04-30T22:18:19.398Z,997.8
2017-04-30T22:28:29.689Z,997.8
2017-04-30T22:38:40.036Z,997.9
2017-04-30T22:48:50.358Z,997.8
2017-04-30T22:59:00.671Z,997.8
2017-04-30T23:09:10.964Z,997.9
2017-04-30T23:19:21.248Z,997.6
2017-04-30T23:29:31.558Z,997.7
2017-04-30T23:39:41.823Z,997.7
2017-04-30T23:49:52.111Z,997.6
